Time,TemperatureF,DewpointF,PressureIn,WindDirection,WindDirectionDegrees,WindSpeedMPH,WindSpeedGustMPH,Humidity,HourlyPrecipIn,Conditions,Clouds,dailyrainin,SoftwareType,DateUTC
2013-02-09 00:01:00,29.0,8.0,29.73,North,-999,-999.0,-999.0,41,-99.99,,,-99.99,,2013-02-09 07:01:00,
2013-02-09 00:11:00,29.0,8.0,29.73,North,-999,-999.0,-999.0,41,-99.99,,,-99.99,,2013-02-09 07:11:00,
2013-02-09 00:21:00,29.0,8.0,29.73,North,-999,-999.0,-999.0,41,-99.99,,,-99.99,,2013-02-09 07:21:00,
2013-02-09 00:31:00,29.0,8.0,29.73,North,-999,-999.0,-999.0,41,-99.99,,,-99.99,,2013-02-09 07:31:00,
2013-02-09 00:42:00,25.0,9.0,29.73,North,-999,-999.0,-999.0,49,-99.99,,,-99.99,,2013-02-09 07:42:00,
2013-02-09 00:51:00,25.0,9.0,29.73,North,-999,-999.0,-999.0,49,-99.99,,,-99.99,,2013-02-09 07:51:00,
2013-02-09 01:01:00,25.0,9.0,29.73,North,-999,-999.0,-999.0,49,-99.99,,,-99.99,,2013-02-09 08:01:00,
2013-02-09 01:11:00,25.0,9.0,29.73,North,-999,-999.0,-999.0,49,-99.99,,,-99.99,,2013-02-09 08:11:00,
2013-02-09 01:21:00,24.0,9.0,29.71,North,-999,-999.0,-999.0,51,-99.99,,,-99.99,,2013-02-09 08:21:00,
2013-02-09 01:31:00,24.0,9.0,29.71,North,-999,-999.0,-999.0,51,-99.99,,,-99.99,,2013-02-09 08:31:00,
2013-02-09 01:42:00,24.0,9.0,29.71,North,-999,-999.0,-999.0,51,-99.99,,,-99.99,,2013-02-09 08:42:00,
2013-02-09 01:52:00,21.0,9.0,29.71,North,-999,-999.0,-999.0,60,-99.99,,,-99.99,,2013-02-09 08:52:00,
2013-02-09 02:03:00,21.0,9.0,29.71,North,-999,-999.0,-999.0,60,-99.99,,,-99.99,,2013-02-09 09:03:00,
2013-02-09 02:11:00,23.0,11.0,29.71,North,-999,-999.0,-999.0,59,-99.99,,,-99.99,,2013-02-09 09:11:00,
2013-02-09 02:21:00,23.0,11.0,29.71,North,-999,-999.0,-999.0,59,-99.99,,,-99.99,,2013-02-09 09:21:00,
2013-02-09 02:32:00,23.0,11.0,29.71,North,-999,-999.0,-999.0,59,-99.99,,,-99.99,,2013-02-09 09:32:00,
2013-02-09 02:42:00,22.0,12.0,29.70,North,-999,-999.0,-999.0,63,-99.99,,,-99.99,,2013-02-09 09:42:00,
2013-02-09 02:51:00,22.0,12.0,29.70,North,-999,-999.0,-999.0,63,-99.99,,,-99.99,,2013-02-09 09:51:00,
2013-02-09 03:01:00,22.0,12.0,29.70,North,-999,-999.0,-999.0,63,-99.99,,,-99.99,,2013-02-09 10:01:00,
2013-02-09 03:11:00,22.0,12.0,29.70,North,-999,-999.0,-999.0,63,-99.99,,,-99.99,,2013-02-09 10:11:00,
2013-02-09 03:21:00,22.0,12.0,29.69,North,-999,-999.0,-999.0,65,-99.99,,,-99.99,,2013-02-09 10:21:00,
2013-02-09 03:32:00,22.0,12.0,29.69,North,-999,-999.0,-999.0,65,-99.99,,,-99.99,,2013-02-09 10:32:00,
2013-02-09 03:42:00,22.0,12.0,29.70,North,-999,-999.0,-999.0,67,-99.99,,,-99.99,,2013-02-09 10:42:00,
2013-02-09 03:52:00,22.0,12.0,29.70,North,-999,-999.0,-999.0,67,-99.99,,,-99.99,,2013-02-09 10:52:00,
2013-02-09 04:01:00,22.0,12.0,29.70,North,-999,-999.0,-999.0,67,-99.99,,,-99.99,,2013-02-09 11:01:00,
2013-02-09 04:11:00,23.0,13.0,29.69,North,-999,-999.0,-999.0,64,-99.99,,,-99.99,,2013-02-09 11:11:00,
2013-02-09 04:21:00,23.0,13.0,29.69,North,-999,-999.0,-999.0,64,-99.99,,,-99.99,,2013-02-09 11:21:00,
2013-02-09 04:31:00,23.0,13.0,29.69,North,-999,-999.0,-999.0,64,-99.99,,,-99.99,,2013-02-09 11:31:00,
2013-02-09 04:42:00,24.0,13.0,29.69,North,-999,-999.0,-999.0,61,-99.99,,,-99.99,,2013-02-09 11:42:00,
2013-02-09 04:52:00,24.0,13.0,29.69,North,-999,-999.0,-999.0,61,-99.99,,,-99.99,,2013-02-09 11:52:00,
2013-02-09 05:02:00,24.0,13.0,29.69,North,-999,-999.0,-999.0,61,-99.99,,,-99.99,,2013-02-09 12:02:00,
2013-02-09 05:11:00,22.0,12.0,29.68,North,-999,-999.0,-999.0,64,-99.99,,,-99.99,,2013-02-09 12:11:00,
2013-02-09 05:21:00,22.0,12.0,29.68,North,-999,-999.0,-999.0,64,-99.99,,,-99.99,,2013-02-09 12:21:00,
2013-02-09 05:32:00,22.0,12.0,29.68,North,-999,-999.0,-999.0,64,-99.99,,,-99.99,,2013-02-09 12:32:00,
2013-02-09 05:42:00,21.0,12.0,29.65,North,-999,-999.0,-999.0,67,-99.99,,,-99.99,,2013-02-09 12:42:00,
2013-02-09 05:52:00,21.0,12.0,29.65,North,-999,-999.0,-999.0,67,-99.99,,,-99.99,,2013-02-09 12:52:00,
2013-02-09 06:02:00,21.0,12.0,29.65,North,-999,-999.0,-999.0,67,-99.99,,,-99.99,,2013-02-09 13:02:00,
2013-02-09 06:11:00,22.0,12.0,29.66,North,-999,-999.0,-999.0,66,-99.99,,,-99.99,,2013-02-09 13:11:00,
2013-02-09 06:21:00,22.0,12.0,29.66,North,-999,-999.0,-999.0,66,-99.99,,,-99.99,,2013-02-09 13:21:00,
2013-02-09 06:32:00,22.0,12.0,29.66,North,-999,-999.0,-999.0,66,-99.99,,,-99.99,,2013-02-09 13:32:00,
2013-02-09 06:42:00,22.0,12.0,29.66,North,-999,-999.0,-999.0,66,-99.99,,,-99.99,,2013-02-09 13:42:00,
2013-02-09 06:52:00,19.0,12.0,29.66,North,-999,-999.0,-999.0,70,-99.99,,,-99.99,,2013-02-09 13:52:00,
2013-02-09 07:01:00,19.0,12.0,29.66,North,-999,-999.0,-999.0,70,-99.99,,,-99.99,,2013-02-09 14:01:00,
2013-02-09 07:11:00,20.0,11.0,29.65,North,-999,-999.0,-999.0,69,-99.99,,,-99.99,,2013-02-09 14:11:00,
2013-02-09 07:21:00,20.0,11.0,29.65,North,-999,-999.0,-999.0,69,-99.99,,,-99.99,,2013-02-09 14:21:00,
2013-02-09 07:31:00,20.0,11.0,29.65,North,-999,-999.0,-999.0,69,-99.99,,,-99.99,,2013-02-09 14:31:00,
2013-02-09 07:42:00,20.0,11.0,29.65,North,-999,-999.0,-999.0,68,-99.99,,,-99.99,,2013-02-09 14:42:00,
2013-02-09 07:52:00,20.0,11.0,29.65,North,-999,-999.0,-999.0,68,-99.99,,,-99.99,,2013-02-09 14:52:00,
2013-02-09 08:02:00,20.0,11.0,29.65,North,-999,-999.0,-999.0,68,-99.99,,,-99.99,,2013-02-09 15:02:00,
2013-02-09 08:11:00,18.0,12.0,29.65,North,-999,-999.0,-999.0,78,-99.99,,,-99.99,,2013-02-09 15:11:00,
2013-02-09 08:21:00,18.0,12.0,29.65,North,-999,-999.0,-999.0,78,-99.99,,,-99.99,,2013-02-09 15:21:00,
2013-02-09 08:32:00,18.0,12.0,29.65,North,-999,-999.0,-999.0,78,-99.99,,,-99.99,,2013-02-09 15:32:00,
2013-02-09 08:42:00,22.0,15.0,29.64,North,-999,-999.0,-999.0,74,-99.99,,,-99.99,,2013-02-09 15:42:00,
2013-02-09 08:51:00,22.0,15.0,29.64,North,-999,-999.0,-999.0,74,-99.99,,,-99.99,,2013-02-09 15:51:00,
2013-02-09 09:01:00,22.0,15.0,29.64,North,-999,-999.0,-999.0,74,-99.99,,,-99.99,,2013-02-09 16:01:00,
2013-02-09 09:11:00,24.0,15.0,29.64,North,-999,-999.0,-999.0,69,-99.99,,,-99.99,,2013-02-09 16:11:00,
2013-02-09 09:22:00,24.0,15.0,29.64,North,-999,-999.0,-999.0,69,-99.99,,,-99.99,,2013-02-09 16:22:00,
2013-02-09 09:31:00,24.0,15.0,29.64,North,-999,-999.0,-999.0,69,-99.99,,,-99.99,,2013-02-09 16:31:00,
2013-02-09 09:42:00,26.0,13.0,29.63,North,-999,-999.0,-999.0,57,-99.99,,,-99.99,,2013-02-09 16:42:00,
2013-02-09 09:51:00,26.0,13.0,29.63,North,-999,-999.0,-999.0,57,-99.99,,,-99.99,,2013-02-09 16:51:00,
2013-02-09 10:01:00,26.0,13.0,29.63,North,-999,-999.0,-999.0,57,-99.99,,,-99.99,,2013-02-09 17:01:00,
2013-02-09 10:11:00,25.0,14.0,29.63,North,-999,-999.0,-999.0,62,-99.99,,,-99.99,,2013-02-09 17:11:00,
2013-02-09 10:21:00,25.0,14.0,29.63,North,-999,-999.0,-999.0,62,-99.99,,,-99.99,,2013-02-09 17:21:00,
2013-02-09 10:32:00,25.0,14.0,29.63,North,-999,-999.0,-999.0,62,-99.99,,,-99.99,,2013-02-09 17:32:00,
2013-02-09 10:42:00,25.0,15.0,29.61,North,-999,-999.0,-999.0,64,-99.99,,,-99.99,,2013-02-09 17:42:00,
2013-02-09 10:52:00,25.0,15.0,29.61,North,-999,-999.0,-999.0,64,-99.99,,,-99.99,,2013-02-09 17:52:00,
2013-02-09 11:02:00,25.0,15.0,29.61,North,-999,-999.0,-999.0,64,-99.99,,,-99.99,,2013-02-09 18:02:00,
2013-02-09 11:12:00,27.0,15.0,29.60,North,-999,-999.0,-999.0,61,-99.99,,,-99.99,,2013-02-09 18:12:00,
2013-02-09 11:23:00,27.0,15.0,29.60,North,-999,-999.0,-999.0,61,-99.99,,,-99.99,,2013-02-09 18:23:00,
2013-02-09 11:32:00,27.0,15.0,29.60,North,-999,-999.0,-999.0,61,-99.99,,,-99.99,,2013-02-09 18:32:00,
2013-02-09 11:42:00,26.0,16.0,29.58,North,-999,-999.0,-999.0,65,-99.99,,,-99.99,,2013-02-09 18:42:00,
2013-02-09 11:51:00,26.0,16.0,29.58,North,-999,-999.0,-999.0,65,-99.99,,,-99.99,,2013-02-09 18:51:00,
2013-02-09 12:01:00,26.0,16.0,29.58,North,-999,-999.0,-999.0,65,-99.99,,,-99.99,,2013-02-09 19:01:00,
2013-02-09 12:11:00,26.0,16.0,29.57,North,-999,-999.0,-999.0,68,-99.99,,,-99.99,,2013-02-09 19:11:00,
2013-02-09 12:22:00,26.0,16.0,29.57,North,-999,-999.0,-999.0,68,-99.99,,,-99.99,,2013-02-09 19:22:00,
2013-02-09 12:31:00,26.0,16.0,29.57,North,-999,-999.0,-999.0,68,-99.99,,,-99.99,,2013-02-09 19:31:00,
2013-02-09 12:42:00,26.0,16.0,29.57,North,-999,-999.0,-999.0,68,-99.99,,,-99.99,,2013-02-09 19:42:00,
2013-02-09 12:52:00,25.0,17.0,29.56,North,-999,-999.0,-999.0,73,-99.99,,,-99.99,,2013-02-09 19:52:00,
2013-02-09 13:01:00,25.0,17.0,29.56,North,-999,-999.0,-999.0,73,-99.99,,,-99.99,,2013-02-09 20:01:00,
2013-02-09 13:11:00,25.0,17.0,29.56,North,-999,-999.0,-999.0,73,-99.99,,,-99.99,,2013-02-09 20:11:00,
2013-02-09 13:21:00,23.0,20.0,29.56,North,-999,-999.0,-999.0,86,-99.99,,,-99.99,,2013-02-09 20:21:00,
2013-02-09 13:32:00,23.0,20.0,29.56,North,-999,-999.0,-999.0,86,-99.99,,,-99.99,,2013-02-09 20:32:00,
2013-02-09 13:42:00,24.0,21.0,29.56,North,-999,-999.0,-999.0,91,-99.99,,,-99.99,,2013-02-09 20:42:00,
2013-02-09 13:52:00,24.0,21.0,29.56,North,-999,-999.0,-999.0,91,-99.99,,,-99.99,,2013-02-09 20:52:00,
2013-02-09 14:02:00,24.0,21.0,29.56,North,-999,-999.0,-999.0,91,-99.99,,,-99.99,,2013-02-09 21:02:00,
2013-02-09 14:11:00,23.0,20.0,29.54,North,-999,-999.0,-999.0,89,-99.99,,,-99.99,,2013-02-09 21:11:00,
2013-02-09 14:21:00,23.0,20.0,29.54,North,-999,-999.0,-999.0,89,-99.99,,,-99.99,,2013-02-09 21:21:00,
2013-02-09 14:32:00,23.0,20.0,29.54,North,-999,-999.0,-999.0,89,-99.99,,,-99.99,,2013-02-09 21:32:00,
2013-02-09 14:42:00,23.0,20.0,29.54,North,-999,-999.0,-999.0,89,-99.99,,,-99.99,,2013-02-09 21:42:00,
2013-02-09 14:52:00,22.0,20.0,29.53,North,-999,-999.0,-999.0,90,-99.99,,,-99.99,,2013-02-09 21:52:00,
2013-02-09 15:01:00,22.0,20.0,29.53,North,-999,-999.0,-999.0,90,-99.99,,,-99.99,,2013-02-09 22:01:00,
2013-02-09 15:11:00,22.0,20.0,29.53,North,-999,-999.0,-999.0,90,-99.99,,,-99.99,,2013-02-09 22:11:00,
2013-02-09 15:21:00,21.0,18.0,29.54,North,-999,-999.0,-999.0,90,-99.99,,,-99.99,,2013-02-09 22:21:00,
2013-02-09 15:32:00,21.0,18.0,29.54,North,-999,-999.0,-999.0,90,-99.99,,,-99.99,,2013-02-09 22:32:00,
2013-02-09 15:42:00,21.0,18.0,29.54,North,-999,-999.0,-999.0,90,-99.99,,,-99.99,,2013-02-09 22:42:00,
2013-02-09 15:51:00,22.0,19.0,29.56,North,-999,-999.0,-999.0,89,-99.99,,,-99.99,,2013-02-09 22:51:00,
2013-02-09 16:01:00,22.0,19.0,29.56,North,-999,-999.0,-999.0,89,-99.99,,,-99.99,,2013-02-09 23:01:00,
2013-02-09 16:11:00,22.0,19.0,29.56,North,-999,-999.0,-999.0,90,-99.99,,,-99.99,,2013-02-09 23:11:00,
2013-02-09 16:21:00,22.0,19.0,29.56,North,-999,-999.0,-999.0,90,-99.99,,,-99.99,,2013-02-09 23:21:00,
2013-02-09 16:32:00,22.0,19.0,29.56,North,-999,-999.0,-999.0,90,-99.99,,,-99.99,,2013-02-09 23:32:00,
2013-02-09 16:42:00,21.0,19.0,29.56,North,-999,-999.0,-999.0,89,-99.99,,,-99.99,,2013-02-09 23:42:00,
2013-02-09 16:52:00,21.0,19.0,29.56,North,-999,-999.0,-999.0,89,-99.99,,,-99.99,,2013-02-09 23:52:00,
2013-02-09 17:02:00,21.0,19.0,29.56,North,-999,-999.0,-999.0,89,-99.99,,,-99.99,,2013-02-10 00:02:00,
2013-02-09 17:12:00,21.0,19.0,29.56,North,-999,-999.0,-999.0,89,-99.99,,,-99.99,,2013-02-10 00:12:00,
2013-02-09 17:21:00,21.0,19.0,29.56,North,-999,-999.0,-999.0,89,-99.99,,,-99.99,,2013-02-10 00:21:00,
2013-02-09 17:42:00,19.0,17.0,29.57,North,-999,-999.0,-999.0,90,-99.99,,,-99.99,,2013-02-10 00:42:00,
2013-02-09 17:52:00,19.0,17.0,29.57,North,-999,-999.0,-999.0,90,-99.99,,,-99.99,,2013-02-10 00:52:00,
2013-02-09 18:01:00,19.0,17.0,29.57,North,-999,-999.0,-999.0,90,-99.99,,,-99.99,,2013-02-10 01:01:00,
2013-02-09 18:12:00,19.0,17.0,29.57,North,-999,-999.0,-999.0,90,-99.99,,,-99.99,,2013-02-10 01:12:00,
2013-02-09 18:21:00,19.0,17.0,29.57,North,-999,-999.0,-999.0,90,-99.99,,,-99.99,,2013-02-10 01:21:00,
2013-02-09 18:31:00,19.0,17.0,29.57,North,-999,-999.0,-999.0,90,-99.99,,,-99.99,,2013-02-10 01:31:00,
2013-02-09 18:42:00,19.0,17.0,29.57,North,-999,-999.0,-999.0,90,-99.99,,,-99.99,,2013-02-10 01:42:00,
2013-02-09 18:52:00,19.0,17.0,29.57,North,-999,-999.0,-999.0,90,-99.99,,,-99.99,,2013-02-10 01:52:00,
2013-02-09 19:01:00,19.0,17.0,29.57,North,-999,-999.0,-999.0,90,-99.99,,,-99.99,,2013-02-10 02:01:00,
2013-02-09 19:11:00,18.0,16.0,29.55,North,-999,-999.0,-999.0,90,-99.99,,,-99.99,,2013-02-10 02:11:00,
2013-02-09 19:22:00,18.0,16.0,29.55,North,-999,-999.0,-999.0,90,-99.99,,,-99.99,,2013-02-10 02:22:00,
2013-02-09 19:31:00,18.0,16.0,29.55,North,-999,-999.0,-999.0,90,-99.99,,,-99.99,,2013-02-10 02:31:00,
2013-02-09 19:42:00,19.0,16.0,29.55,North,-999,-999.0,-999.0,91,-99.99,,,-99.99,,2013-02-10 02:42:00,
2013-02-09 19:52:00,19.0,16.0,29.55,North,-999,-999.0,-999.0,91,-99.99,,,-99.99,,2013-02-10 02:52:00,
2013-02-09 20:01:00,19.0,16.0,29.55,North,-999,-999.0,-999.0,91,-99.99,,,-99.99,,2013-02-10 03:01:00,
2013-02-09 20:11:00,19.0,16.0,29.55,North,-999,-999.0,-999.0,91,-99.99,,,-99.99,,2013-02-10 03:11:00,
2013-02-09 20:21:00,18.0,15.0,29.54,North,-999,-999.0,-999.0,90,-99.99,,,-99.99,,2013-02-10 03:21:00,
2013-02-09 20:32:00,18.0,15.0,29.54,North,-999,-999.0,-999.0,90,-99.99,,,-99.99,,2013-02-10 03:32:00,
2013-02-09 20:41:00,18.0,15.0,29.54,North,-999,-999.0,-999.0,90,-99.99,,,-99.99,,2013-02-10 03:41:00,
2013-02-09 20:51:00,17.0,15.0,29.54,North,-999,-999.0,-999.0,90,-99.99,,,-99.99,,2013-02-10 03:51:00,
2013-02-09 21:01:00,17.0,15.0,29.54,North,-999,-999.0,-999.0,90,-99.99,,,-99.99,,2013-02-10 04:01:00,
2013-02-09 21:11:00,18.0,15.0,29.56,North,-999,-999.0,-999.0,90,-99.99,,,-99.99,,2013-02-10 04:11:00,
2013-02-09 21:21:00,18.0,15.0,29.56,North,-999,-999.0,-999.0,90,-99.99,,,-99.99,,2013-02-10 04:21:00,
2013-02-09 21:32:00,18.0,15.0,29.56,North,-999,-999.0,-999.0,90,-99.99,,,-99.99,,2013-02-10 04:32:00,
2013-02-09 21:42:00,18.0,15.0,29.56,North,-999,-999.0,-999.0,90,-99.99,,,-99.99,,2013-02-10 04:42:00,
2013-02-09 21:52:00,18.0,15.0,29.57,North,-999,-999.0,-999.0,90,-99.99,,,-99.99,,2013-02-10 04:52:00,
2013-02-09 22:01:00,18.0,15.0,29.57,North,-999,-999.0,-999.0,90,-99.99,,,-99.99,,2013-02-10 05:01:00,
2013-02-09 22:11:00,18.0,15.0,29.56,North,-999,-999.0,-999.0,90,-99.99,,,-99.99,,2013-02-10 05:11:00,
2013-02-09 22:22:00,18.0,15.0,29.56,North,-999,-999.0,-999.0,90,-99.99,,,-99.99,,2013-02-10 05:22:00,
2013-02-09 22:31:00,18.0,15.0,29.56,North,-999,-999.0,-999.0,90,-99.99,,,-99.99,,2013-02-10 05:31:00,
2013-02-09 22:41:00,18.0,15.0,29.56,North,-999,-999.0,-999.0,90,-99.99,,,-99.99,,2013-02-10 05:41:00,
2013-02-09 22:52:00,18.0,15.0,29.56,North,-999,-999.0,-999.0,90,-99.99,,,-99.99,,2013-02-10 05:52:00,
2013-02-09 23:01:00,18.0,15.0,29.56,North,-999,-999.0,-999.0,90,-99.99,,,-99.99,,2013-02-10 06:01:00,
2013-02-09 23:11:00,18.0,15.0,29.56,North,-999,-999.0,-999.0,90,-99.99,,,-99.99,,2013-02-10 06:11:00,
2013-02-09 23:21:00,18.0,15.0,29.57,North,-999,-999.0,-999.0,90,-99.99,,,-99.99,,2013-02-10 06:21:00,
2013-02-09 23:32:00,18.0,15.0,29.57,North,-999,-999.0,-999.0,90,-99.99,,,-99.99,,2013-02-10 06:32:00,
2013-02-09 23:42:00,18.0,15.0,29.57,North,-999,-999.0,-999.0,90,-99.99,,,-99.99,,2013-02-10 06:42:00,
2013-02-09 23:51:00,18.0,15.0,29.58,North,-999,-999.0,-999.0,90,-99.99,,,-99.99,,2013-02-10 06:51:00,